Time,TemperatureF,DewpointF,PressureIn,WindDirection,WindDirectionDegrees,WindSpeedMPH,WindSpeedGustMPH,Humidity,HourlyPrecipIn,Conditions,Clouds,dailyrainin,SolarRadiationWatts/m^2,SoftwareType,DateUTC
2013-03-20 00:03:00,35.0,14.0,-100.00,WNW,295,4.0,9.0,42,0.00,,,0.00,0.000000,,2013-03-20 04:03:00,
2013-03-20 00:32:00,34.0,15.0,-100.00,West,274,3.0,7.0,46,0.00,,,0.00,0.000000,,2013-03-20 04:32:00,
2013-03-20 00:43:00,34.0,15.0,-100.00,West,274,3.0,7.0,46,0.00,,,0.00,0.000000,,2013-03-20 04:43:00,
2013-03-20 00:53:00,34.0,15.0,-100.00,West,274,3.0,7.0,46,0.00,,,0.00,0.000000,,2013-03-20 04:53:00,
2013-03-20 01:02:00,34.0,15.0,-100.00,West,274,3.0,7.0,46,0.00,,,0.00,0.000000,,2013-03-20 05:02:00,
2013-03-20 01:33:00,32.0,16.0,-100.00,West,274,3.0,5.0,51,0.00,,,0.00,0.000000,,2013-03-20 05:33:00,
2013-03-20 01:43:00,32.0,16.0,-100.00,West,274,3.0,5.0,51,0.00,,,0.00,0.000000,,2013-03-20 05:43:00,
2013-03-20 01:53:00,32.0,16.0,-100.00,West,274,3.0,5.0,51,0.00,,,0.00,0.000000,,2013-03-20 05:53:00,
2013-03-20 02:02:00,32.0,16.0,-100.00,West,274,3.0,5.0,51,0.00,,,0.00,0.000000,,2013-03-20 06:02:00,
2013-03-20 02:43:00,32.0,16.0,-100.00,WNW,282,3.0,7.0,51,0.00,,,0.00,0.000000,,2013-03-20 06:43:00,
2013-03-20 02:53:00,32.0,16.0,-100.00,WNW,282,3.0,7.0,51,0.00,,,0.00,0.000000,,2013-03-20 06:53:00,
2013-03-20 03:02:00,32.0,16.0,-100.00,WNW,282,3.0,7.0,51,0.00,,,0.00,0.000000,,2013-03-20 07:02:00,
2013-03-20 03:32:00,32.0,16.0,-100.00,WNW,286,3.0,7.0,52,0.00,,,0.00,0.000000,,2013-03-20 07:32:00,
2013-03-20 03:42:00,32.0,16.0,-100.00,WNW,286,3.0,7.0,52,0.00,,,0.00,0.000000,,2013-03-20 07:42:00,
2013-03-20 03:52:00,32.0,16.0,-100.00,WNW,286,3.0,7.0,52,0.00,,,0.00,0.000000,,2013-03-20 07:52:00,
2013-03-20 04:02:00,32.0,16.0,-100.00,WNW,286,3.0,7.0,52,0.00,,,0.00,0.000000,,2013-03-20 08:02:00,
2013-03-20 04:42:00,32.0,16.0,-100.00,WNW,286,3.0,7.0,51,0.00,,,0.00,0.000000,,2013-03-20 08:42:00,
2013-03-20 04:52:00,32.0,16.0,-100.00,WNW,286,3.0,7.0,51,0.00,,,0.00,0.000000,,2013-03-20 08:52:00,
2013-03-20 05:02:00,32.0,16.0,-100.00,WNW,286,3.0,7.0,51,0.00,,,0.00,0.000000,,2013-03-20 09:02:00,
2013-03-20 05:43:00,29.0,16.0,-100.00,West,266,3.0,6.0,57,0.00,,,0.00,0.000000,,2013-03-20 09:43:00,
2013-03-20 05:53:00,29.0,16.0,-100.00,West,266,3.0,6.0,57,0.00,,,0.00,0.000000,,2013-03-20 09:53:00,
2013-03-20 06:03:00,29.0,16.0,-100.00,West,266,3.0,6.0,57,0.00,,,0.00,0.000000,,2013-03-20 10:03:00,
2013-03-20 06:33:00,29.0,16.0,-100.00,West,270,3.0,6.0,58,0.00,,,0.00,0.000000,,2013-03-20 10:33:00,
2013-03-20 06:43:00,29.0,16.0,-100.00,West,270,3.0,6.0,58,0.00,,,0.00,0.000000,,2013-03-20 10:43:00,
2013-03-20 06:53:00,29.0,16.0,-100.00,West,270,3.0,6.0,58,0.00,,,0.00,0.000000,,2013-03-20 10:53:00,
2013-03-20 07:03:00,29.0,16.0,-100.00,West,270,3.0,6.0,58,0.00,,,0.00,0.000000,,2013-03-20 11:03:00,
2013-03-20 07:32:00,29.0,16.0,-100.00,West,277,4.0,7.0,57,0.00,,,0.00,0.000000,,2013-03-20 11:32:00,
2013-03-20 07:42:00,29.0,16.0,-100.00,West,277,4.0,7.0,57,0.00,,,0.00,0.000000,,2013-03-20 11:42:00,
2013-03-20 07:52:00,29.0,16.0,-100.00,West,277,4.0,7.0,57,0.00,,,0.00,0.000000,,2013-03-20 11:52:00,
2013-03-20 08:02:00,29.0,16.0,-100.00,West,277,4.0,7.0,57,0.00,,,0.00,0.000000,,2013-03-20 12:02:00,
2013-03-20 08:33:00,31.0,15.0,-100.00,NW,304,5.0,15.0,52,0.00,,,-99.99,4.000000,,2013-03-20 12:33:00,
2013-03-20 08:43:00,31.0,15.0,-100.00,NW,304,5.0,15.0,52,0.00,,,-99.99,4.000000,,2013-03-20 12:43:00,
2013-03-20 08:52:00,31.0,15.0,-100.00,NW,304,5.0,15.0,52,0.00,,,-99.99,4.000000,,2013-03-20 12:52:00,
2013-03-20 09:03:00,31.0,15.0,-100.00,NW,304,5.0,15.0,52,0.00,,,-99.99,4.000000,,2013-03-20 13:03:00,
2013-03-20 09:43:00,33.0,17.0,-100.00,NNW,347,5.0,13.0,52,0.00,,,0.00,104.000000,,2013-03-20 13:43:00,
2013-03-20 09:53:00,33.0,17.0,-100.00,NNW,347,5.0,13.0,52,0.00,,,0.00,104.000000,,2013-03-20 13:53:00,
2013-03-20 10:03:00,33.0,17.0,-100.00,NNW,347,5.0,13.0,52,0.00,,,0.00,104.000000,,2013-03-20 14:03:00,
2013-03-20 10:43:00,35.0,15.0,-100.00,NW,317,5.0,14.0,43,0.00,,,0.00,334.000000,,2013-03-20 14:43:00,
2013-03-20 10:53:00,35.0,15.0,-100.00,NW,317,5.0,14.0,43,0.00,,,0.00,334.000000,,2013-03-20 14:53:00,
2013-03-20 11:02:00,35.0,15.0,-100.00,NW,317,5.0,14.0,43,0.00,,,0.00,334.000000,,2013-03-20 15:02:00,
2013-03-20 11:43:00,36.0,15.0,-100.00,North,4,7.0,16.0,41,0.00,,,0.00,527.000000,,2013-03-20 15:43:00,
2013-03-20 11:53:00,36.0,15.0,-100.00,North,4,7.0,16.0,41,0.00,,,0.00,527.000000,,2013-03-20 15:53:00,
2013-03-20 12:03:00,36.0,15.0,-100.00,North,4,7.0,16.0,41,0.00,,,0.00,527.000000,,2013-03-20 16:03:00,
2013-03-20 12:33:00,36.0,14.0,-100.00,North,353,6.0,16.0,40,0.00,,,0.00,670.000000,,2013-03-20 16:33:00,
2013-03-20 12:43:00,36.0,14.0,-100.00,North,353,6.0,16.0,40,0.00,,,0.00,670.000000,,2013-03-20 16:43:00,
2013-03-20 12:53:00,36.0,14.0,-100.00,North,353,6.0,16.0,40,0.00,,,0.00,670.000000,,2013-03-20 16:53:00,
2013-03-20 13:03:00,36.0,14.0,-100.00,North,353,6.0,16.0,40,0.00,,,0.00,670.000000,,2013-03-20 17:03:00,
2013-03-20 13:42:00,36.0,13.0,-100.00,NNW,327,7.0,16.0,38,0.00,,,0.00,695.000000,,2013-03-20 17:42:00,
2013-03-20 13:53:00,36.0,13.0,-100.00,NNW,327,7.0,16.0,38,0.00,,,0.00,695.000000,,2013-03-20 17:53:00,
2013-03-20 14:02:00,36.0,13.0,-100.00,NNW,327,7.0,16.0,38,0.00,,,0.00,695.000000,,2013-03-20 18:02:00,
2013-03-20 14:34:00,37.0,10.0,-100.00,NW,321,8.0,23.0,32,0.00,,,0.00,822.000000,,2013-03-20 18:34:00,
2013-03-20 14:43:00,37.0,10.0,-100.00,NW,321,8.0,23.0,32,0.00,,,0.00,822.000000,,2013-03-20 18:43:00,
2013-03-20 14:53:00,37.0,10.0,-100.00,NW,321,8.0,23.0,32,0.00,,,0.00,822.000000,,2013-03-20 18:53:00,
2013-03-20 15:02:00,37.0,10.0,-100.00,NW,321,8.0,23.0,32,0.00,,,0.00,822.000000,,2013-03-20 19:02:00,
2013-03-20 15:42:00,39.0,10.0,-100.00,NW,312,7.0,19.0,30,0.00,,,0.00,770.000000,,2013-03-20 19:42:00,
2013-03-20 15:53:00,39.0,10.0,-100.00,NW,312,7.0,19.0,30,0.00,,,0.00,770.000000,,2013-03-20 19:53:00,
2013-03-20 16:02:00,39.0,10.0,-100.00,NW,312,7.0,19.0,30,0.00,,,0.00,770.000000,,2013-03-20 20:02:00,
2013-03-20 16:32:00,37.0,9.0,-100.00,NW,315,6.0,21.0,31,0.00,,,0.00,810.000000,,2013-03-20 20:32:00,
2013-03-20 16:43:00,37.0,9.0,-100.00,NW,315,6.0,21.0,31,0.00,,,0.00,810.000000,,2013-03-20 20:43:00,
2013-03-20 16:53:00,37.0,9.0,-100.00,NW,315,6.0,21.0,31,0.00,,,0.00,810.000000,,2013-03-20 20:53:00,
2013-03-20 17:02:00,37.0,9.0,-100.00,NW,315,6.0,21.0,31,0.00,,,0.00,810.000000,,2013-03-20 21:02:00,
2013-03-20 17:33:00,32.0,7.0,-100.00,NW,308,9.0,20.0,34,0.00,,,0.00,537.000000,,2013-03-20 21:33:00,
2013-03-20 17:42:00,32.0,7.0,-100.00,NW,308,9.0,20.0,34,0.00,,,0.00,537.000000,,2013-03-20 21:42:00,
2013-03-20 17:53:00,32.0,7.0,-100.00,NW,308,9.0,20.0,34,0.00,,,0.00,537.000000,,2013-03-20 21:53:00,
2013-03-20 18:03:00,32.0,7.0,-100.00,NW,308,9.0,20.0,34,0.00,,,0.00,537.000000,,2013-03-20 22:03:00,
2013-03-20 18:33:00,30.0,6.0,-100.00,NW,310,9.0,22.0,36,0.00,,,0.00,343.000000,,2013-03-20 22:33:00,
2013-03-20 18:43:00,30.0,6.0,-100.00,NW,310,9.0,22.0,36,0.00,,,0.00,343.000000,,2013-03-20 22:43:00,
2013-03-20 18:53:00,30.0,6.0,-100.00,NW,310,9.0,22.0,36,0.00,,,0.00,343.000000,,2013-03-20 22:53:00,
2013-03-20 19:02:00,30.0,6.0,-100.00,NW,310,9.0,22.0,36,0.00,,,0.00,343.000000,,2013-03-20 23:02:00,
2013-03-20 19:33:00,28.0,7.0,-100.00,NW,314,7.0,20.0,40,0.00,,,0.00,109.000000,,2013-03-20 23:33:00,
2013-03-20 19:43:00,28.0,7.0,-100.00,NW,314,7.0,20.0,40,0.00,,,0.00,109.000000,,2013-03-20 23:43:00,
2013-03-20 19:53:00,28.0,7.0,-100.00,NW,314,7.0,20.0,40,0.00,,,0.00,109.000000,,2013-03-20 23:53:00,
2013-03-20 20:02:00,28.0,7.0,-100.00,NW,314,7.0,20.0,40,0.00,,,0.00,109.000000,,2013-03-21 00:02:00,
2013-03-20 20:33:00,26.0,7.0,-100.00,NNW,331,6.0,13.0,43,0.00,,,0.00,15.000000,,2013-03-21 00:33:00,
2013-03-20 20:42:00,26.0,7.0,-100.00,NNW,331,6.0,13.0,43,0.00,,,0.00,15.000000,,2013-03-21 00:42:00,
2013-03-20 20:52:00,26.0,7.0,-100.00,NNW,331,6.0,13.0,43,0.00,,,0.00,15.000000,,2013-03-21 00:52:00,
2013-03-20 21:02:00,26.0,7.0,-100.00,NNW,331,6.0,13.0,43,0.00,,,0.00,15.000000,,2013-03-21 01:02:00,
2013-03-20 21:42:00,25.0,8.0,-100.00,NW,321,4.0,11.0,48,0.00,,,0.00,0.000000,,2013-03-21 01:42:00,
2013-03-20 21:53:00,25.0,8.0,-100.00,NW,321,4.0,11.0,48,0.00,,,0.00,0.000000,,2013-03-21 01:53:00,
2013-03-20 22:02:00,25.0,8.0,-100.00,NW,321,4.0,11.0,48,0.00,,,0.00,0.000000,,2013-03-21 02:02:00,
2013-03-20 23:02:00,24.0,8.0,-100.00,NW,306,2.0,10.0,50,0.00,,,0.00,0.000000,,2013-03-21 03:02:00,
2013-03-20 23:33:00,23.0,7.0,-100.00,WNW,288,2.0,8.0,50,0.00,,,0.00,0.000000,,2013-03-21 03:33:00,
2013-03-20 23:43:00,23.0,7.0,-100.00,WNW,288,2.0,8.0,50,0.00,,,0.00,0.000000,,2013-03-21 03:43:00,
2013-03-20 23:53:00,23.0,7.0,-100.00,WNW,288,2.0,8.0,50,0.00,,,0.00,0.000000,,2013-03-21 03:53:00,